createdAt,value
2022-11-29T00:00:03.257Z,24.75
2022-11-29T00:02:45.497Z,30.65
2022-11-29T00:05:15.140Z,30.58
2022-11-29T00:07:44.820Z,29.25
2022-11-29T00:10:14.751Z,25.23
2022-11-29T00:12:44.380Z,26.40
2022-11-29T00:15:14.325Z,30.15
2022-11-29T00:17:46.480Z,32.30
2022-11-29T00:20:16.382Z,23.77
2022-11-29T00:22:45.943Z,26.85
2022-11-29T00:25:15.483Z,27.70
2022-11-29T00:27:45.020Z,26.70
2022-11-29T00:30:15.731Z,34.42
2022-11-29T00:32:48.193Z,27.17
2022-11-29T00:35:17.975Z,28.90
2022-11-29T00:37:47.535Z,35.83
2022-11-29T00:40:17.167Z,29.88
2022-11-29T00:42:46.723Z,32.30
2022-11-29T00:45:16.280Z,32.40
2022-11-29T00:47:48.444Z,26.42
2022-11-29T00:50:18.069Z,29.92
2022-11-29T00:52:47.685Z,27.23
2022-11-29T00:55:17.766Z,28.45
2022-11-29T00:57:47.374Z,26.77
2022-11-29T01:00:18.372Z,32.38
2022-11-29T01:02:50.766Z,31.92
2022-11-29T01:05:20.585Z,28.98
2022-11-29T01:07:50.245Z,26.50
2022-11-29T01:10:19.906Z,30.58
2022-11-29T01:12:49.456Z,27.13
2022-11-29T01:15:19.203Z,33.78
2022-11-29T01:17:51.524Z,30.17
2022-11-29T01:20:21.133Z,28.80
2022-11-29T01:22:51.040Z,24.75
2022-11-29T01:25:21.367Z,32.88
2022-11-29T01:27:50.935Z,29.75
2022-11-29T01:30:20.667Z,28.55
2022-11-29T01:32:52.815Z,30.40
2022-11-29T01:35:22.356Z,33.28
2022-11-29T01:37:51.901Z,28.33
2022-11-29T01:40:21.551Z,30.30
2022-11-29T01:42:51.256Z,36.13
2022-11-29T01:45:27.423Z,40.67
2022-11-29T01:48:00.659Z,35.38
2022-11-29T01:50:30.249Z,40.87
2022-11-29T01:53:00.619Z,30.88
2022-11-29T01:55:30.487Z,35.63
2022-11-29T01:58:01.391Z,42.42
2022-11-29T02:00:30.964Z,39.30
2022-11-29T02:03:07.053Z,43.63
2022-11-29T02:05:36.672Z,40.72
2022-11-29T02:08:07.031Z,41.53
2022-11-29T02:10:46.310Z,44.22
2022-11-29T02:13:24.838Z,50.33
2022-11-29T02:15:59.235Z,46.13
2022-11-29T02:18:45.706Z,40.47
2022-11-29T02:21:33.679Z,45.47
2022-11-29T02:24:17.077Z,42.42
2022-11-29T02:27:01.839Z,44.83
2022-11-29T02:29:40.573Z,38.83
2022-11-29T02:32:36.902Z,39.90
2022-11-29T02:35:18.361Z,39.97
2022-11-29T02:38:09.274Z,48.08
2022-11-29T02:40:52.384Z,43.45
2022-11-29T02:43:39.567Z,45.28
2022-11-29T02:46:24.646Z,45.03
2022-11-29T02:49:03.638Z,48.03
2022-11-29T02:51:41.305Z,38.40
2022-11-29T02:54:17.041Z,41.90
2022-11-29T02:56:49.492Z,35.22
2022-11-29T02:59:27.792Z,40.08
2022-11-29T03:02:06.242Z,40.42
2022-11-29T03:04:44.198Z,39.45
2022-11-29T03:07:18.236Z,42.95
2022-11-29T03:09:50.519Z,36.78
2022-11-29T03:12:23.715Z,40.55
2022-11-29T03:14:59.195Z,35.87
2022-11-29T03:17:34.959Z,32.78
2022-11-29T03:20:15.744Z,37.42
2022-11-29T03:22:50.564Z,37.67
2022-11-29T03:25:25.586Z,35.20
2022-11-29T03:27:59.619Z,38.28
2022-11-29T03:30:29.217Z,40.35
2022-11-29T03:33:05.535Z,40.03
2022-11-29T03:35:42.709Z,34.10
2022-11-29T03:38:18.017Z,44.90
2022-11-29T03:40:52.858Z,48.08
2022-11-29T03:43:26.505Z,42.50
2022-11-29T03:46:00.516Z,45.25
2022-11-29T03:48:34.254Z,44.15
2022-11-29T03:51:10.311Z,46.90
2022-11-29T03:53:44.859Z,52.05
2022-11-29T03:56:28.868Z,57.30
2022-11-29T03:59:06.219Z,58.38
2022-11-29T04:02:20.110Z,52.13
2022-11-29T04:05:12.078Z,53.28
2022-11-29T04:07:57.038Z,59.53
2022-11-29T04:10:43.329Z,56.05
2022-11-29T04:13:34.271Z,57.53
2022-11-29T04:16:36.307Z,55.75
2022-11-29T04:19:18.603Z,73.47
2022-11-29T04:22:11.841Z,112.03
2022-11-29T04:25:12.109Z,60.72
2022-11-29T04:28:04.035Z,64.85
2022-11-29T04:30:38.023Z,75.95
2022-11-29T04:33:33.050Z,100.10
2022-11-29T04:36:29.601Z,64.35
2022-11-29T04:39:16.688Z,75.35
2022-11-29T04:42:18.879Z,80.38
2022-11-29T04:44:59.832Z,101.13
2022-11-29T04:47:44.990Z,84.28
2022-11-29T04:50:33.667Z,89.70
2022-11-29T04:53:30.871Z,90.35
2022-11-29T04:56:08.444Z,103.03
2022-11-29T04:58:44.239Z,99.82
2022-11-29T05:01:20.594Z,128.27
2022-11-29T05:03:57.054Z,126.15
2022-11-29T05:06:32.417Z,113.10
2022-11-29T05:09:09.659Z,150.73
2022-11-29T05:11:47.522Z,119.50
2022-11-29T05:14:30.083Z,130.23
2022-11-29T05:17:07.015Z,117.43
2022-11-29T05:19:49.640Z,125.15
2022-11-29T05:22:34.784Z,130.50
2022-11-29T05:25:18.979Z,134.82
2022-11-29T05:27:50.881Z,143.68
2022-11-29T05:30:25.519Z,164.32
2022-11-29T05:33:00.260Z,147.95
2022-11-29T05:35:42.988Z,182.55
2022-11-29T05:38:26.753Z,149.63
2022-11-29T05:41:06.050Z,158.98
2022-11-29T05:43:48.421Z,153.35
2022-11-29T05:46:24.993Z,152.25
2022-11-29T05:49:01.789Z,162.40
2022-11-29T05:51:40.763Z,145.48
2022-11-29T05:54:17.421Z,135.38
2022-11-29T05:56:52.200Z,127.90
2022-11-29T05:59:23.966Z,124.07
2022-11-29T06:02:00.817Z,123.68
2022-11-29T06:04:36.748Z,120.93
2022-11-29T06:07:11.625Z,113.13
2022-11-29T06:09:44.260Z,108.78
2022-11-29T06:12:21.023Z,100.68
2022-11-29T06:15:31.024Z,96.47
2022-11-29T06:18:17.262Z,108.80
2022-11-29T06:20:55.631Z,94.72
2022-11-29T06:23:57.863Z,97.60
2022-11-29T06:26:47.592Z,80.55
2022-11-29T06:29:26.560Z,91.10
2022-11-29T06:32:00.092Z,90.55
2022-11-29T06:34:36.529Z,82.28
2022-11-29T06:37:08.568Z,85.43
2022-11-29T06:39:38.875Z,82.15
2022-11-29T06:42:08.531Z,95.40
2022-11-29T06:44:38.706Z,84.22
2022-11-29T06:47:10.431Z,77.03
2022-11-29T06:49:49.264Z,80.63
2022-11-29T06:52:27.466Z,75.93
2022-11-29T06:55:13.186Z,76.50
2022-11-29T06:57:51.704Z,82.25
2022-11-29T07:00:25.678Z,67.32
2022-11-29T07:03:28.936Z,74.20
2022-11-29T07:06:01.676Z,57.95
2022-11-29T07:08:31.912Z,46.08
2022-11-29T07:11:02.653Z,62.78
2022-11-29T07:13:32.907Z,53.20
2022-11-29T07:16:07.962Z,52.80
2022-11-29T07:18:45.534Z,62.10
2022-11-29T07:21:24.348Z,38.97
2022-11-29T07:23:58.759Z,48.83
2022-11-29T07:26:34.581Z,47.63
2022-11-29T07:29:14.131Z,39.65
2022-11-29T07:31:51.387Z,50.63
2022-11-29T07:34:26.312Z,45.38
2022-11-29T07:37:06.493Z,49.78
2022-11-29T07:39:44.893Z,43.95
2022-11-29T07:42:19.147Z,39.25
2022-11-29T07:44:57.788Z,48.05
2022-11-29T07:47:31.263Z,39.08
2022-11-29T07:50:03.976Z,41.55
2022-11-29T07:52:36.630Z,42.35
2022-11-29T07:55:06.737Z,37.05
2022-11-29T07:57:36.998Z,35.25
2022-11-29T08:00:07.925Z,39.20
2022-11-29T08:02:41.478Z,39.00
2022-11-29T08:05:12.318Z,32.88
2022-11-29T08:07:44.601Z,41.80
2022-11-29T08:10:16.303Z,33.70
2022-11-29T08:12:46.820Z,39.45
2022-11-29T08:15:16.824Z,35.85
2022-11-29T08:17:46.474Z,34.25
2022-11-29T08:20:17.445Z,37.55
2022-11-29T08:22:56.866Z,31.27
2022-11-29T08:25:26.557Z,40.95
2022-11-29T08:27:57.263Z,48.38
2022-11-29T08:30:26.927Z,40.42
2022-11-29T08:32:56.473Z,38.05
2022-11-29T08:35:26.524Z,40.97
2022-11-29T08:37:58.718Z,39.80
2022-11-29T08:40:28.296Z,39.60
2022-11-29T08:43:00.134Z,38.17
2022-11-29T08:45:29.821Z,40.38
2022-11-29T08:47:59.404Z,41.13
2022-11-29T08:50:28.949Z,35.72
2022-11-29T08:53:13.648Z,45.08
2022-11-29T08:55:46.560Z,38.92
2022-11-29T08:58:18.174Z,38.03
2022-11-29T09:00:48.627Z,42.53
2022-11-29T09:03:30.688Z,35.17
2022-11-29T09:06:00.386Z,45.45
2022-11-29T09:08:32.515Z,48.70
2022-11-29T09:11:02.119Z,58.65
2022-11-29T09:13:31.660Z,50.03
2022-11-29T09:16:01.284Z,49.08
2022-11-29T09:18:31.059Z,49.70
2022-11-29T09:21:00.855Z,43.53
2022-11-29T09:23:33.020Z,41.65
2022-11-29T09:26:02.612Z,48.60
2022-11-29T09:28:33.351Z,49.15
2022-11-29T09:31:08.015Z,49.03
2022-11-29T09:33:37.674Z,49.35
2022-11-29T09:36:08.446Z,52.80
2022-11-29T09:38:41.429Z,58.17
2022-11-29T09:41:34.274Z,48.42
2022-11-29T09:44:08.838Z,54.38
2022-11-29T09:46:43.863Z,47.95
2022-11-29T09:49:33.499Z,53.17
2022-11-29T09:52:07.571Z,52.63
2022-11-29T09:57:11.234Z,51.17
2022-11-29T09:59:44.888Z,59.53
2022-11-29T10:02:21.720Z,52.92
2022-11-29T10:04:55.179Z,52.65
2022-11-29T10:07:27.628Z,52.20
2022-11-29T10:10:04.402Z,51.55
2022-11-29T10:12:37.799Z,51.65
2022-11-29T10:15:13.936Z,53.85
2022-11-29T10:17:48.054Z,58.50
2022-11-29T10:22:53.595Z,62.38
2022-11-29T10:25:29.330Z,72.32
2022-11-29T10:27:58.994Z,84.28
2022-11-29T10:30:28.573Z,81.18
2022-11-29T10:33:00.188Z,88.05
2022-11-29T10:35:30.590Z,84.95
2022-11-29T10:40:57.563Z,87.25
2022-11-29T10:43:27.250Z,89.65
2022-11-29T10:45:58.923Z,76.85
2022-11-29T10:48:31.784Z,83.88
2022-11-29T10:51:01.706Z,75.55
2022-11-29T10:53:35.886Z,73.80
2022-11-29T10:56:10.396Z,77.40
2022-11-29T10:58:57.356Z,76.32
2022-11-29T11:01:29.147Z,79.05
2022-11-29T11:04:03.240Z,77.18
2022-11-29T11:06:45.993Z,70.82
2022-11-29T11:09:21.634Z,69.47
2022-11-29T11:11:58.786Z,67.57
2022-11-29T11:14:30.383Z,65.22
2022-11-29T11:17:17.485Z,74.32
2022-11-29T11:19:57.640Z,72.93
2022-11-29T11:22:27.956Z,79.47
2022-11-29T11:25:03.249Z,79.80
2022-11-29T11:27:38.574Z,72.53
2022-11-29T11:30:10.608Z,77.57
2022-11-29T11:32:40.210Z,67.15
2022-11-29T11:35:24.802Z,73.68
2022-11-29T11:37:59.666Z,73.07
2022-11-29T11:40:31.250Z,76.13
2022-11-29T11:43:04.990Z,66.38
2022-11-29T11:45:38.614Z,66.97
2022-11-29T11:48:15.039Z,70.07
2022-11-29T11:50:47.299Z,70.05
2022-11-29T11:53:25.358Z,66.28
2022-11-29T11:56:01.378Z,69.80
2022-11-29T11:58:35.648Z,77.25
2022-11-29T12:01:19.161Z,74.00
2022-11-29T12:03:53.668Z,77.90
2022-11-29T12:06:39.645Z,85.43
2022-11-29T12:09:18.743Z,72.57
2022-11-29T12:11:54.279Z,78.22
2022-11-29T12:14:34.104Z,87.30
2022-11-29T12:17:14.285Z,76.90
2022-11-29T12:19:55.572Z,77.15
2022-11-29T12:22:28.097Z,69.05
2022-11-29T12:25:01.058Z,65.05
2022-11-29T12:27:30.772Z,68.53
2022-11-29T12:30:03.175Z,76.10
2022-11-29T12:32:49.756Z,73.18
2022-11-29T12:35:42.966Z,71.25
2022-11-29T12:38:23.532Z,61.00
2022-11-29T12:40:57.683Z,65.28
2022-11-29T12:46:06.899Z,67.90
2022-11-29T12:48:40.999Z,66.00
2022-11-29T12:51:16.867Z,73.50
2022-11-29T12:53:55.232Z,70.82
2022-11-29T12:56:29.593Z,65.50
2022-11-29T12:59:07.204Z,71.85
2022-11-29T13:01:53.845Z,73.20
2022-11-29T13:04:26.803Z,71.00
2022-11-29T13:07:00.294Z,61.13
2022-11-29T13:09:49.935Z,60.00
2022-11-29T13:12:23.413Z,62.28
2022-11-29T13:14:58.409Z,57.28
2022-11-29T13:17:40.369Z,58.13
2022-11-29T13:20:30.590Z,62.10
2022-11-29T13:23:07.221Z,53.50
2022-11-29T13:25:39.773Z,58.22
2022-11-29T13:28:14.364Z,61.97
2022-11-29T13:30:44.089Z,55.83
2022-11-29T13:33:23.273Z,57.75
2022-11-29T13:35:59.553Z,58.25
2022-11-29T13:38:34.443Z,59.05
2022-11-29T13:41:10.139Z,59.85
2022-11-29T13:43:42.484Z,50.75
2022-11-29T13:46:19.740Z,49.05
2022-11-29T13:48:54.281Z,52.58
2022-11-29T13:51:26.779Z,52.65
2022-11-29T13:53:57.116Z,62.33
2022-11-29T13:56:32.744Z,51.90
2022-11-29T13:59:03.619Z,57.95
2022-11-29T14:01:46.520Z,50.17
2022-11-29T14:04:27.498Z,50.67
2022-11-29T14:07:08.846Z,51.58
2022-11-29T14:09:44.925Z,49.20
2022-11-29T14:12:28.185Z,50.92
2022-11-29T14:15:01.479Z,56.58
2022-11-29T14:17:37.275Z,51.17
2022-11-29T14:20:54.517Z,48.78
2022-11-29T14:23:41.011Z,51.63
2022-11-29T14:26:28.522Z,53.50
2022-11-29T14:28:58.658Z,50.00
2022-11-29T14:31:53.387Z,51.35
2022-11-29T14:37:11.682Z,54.08
2022-11-29T14:39:49.548Z,54.42
2022-11-29T14:42:21.161Z,53.95
2022-11-29T14:44:53.715Z,51.70
2022-11-29T14:47:29.946Z,52.28
2022-11-29T14:50:00.893Z,58.60
2022-11-29T14:52:33.006Z,58.70
2022-11-29T14:55:08.009Z,49.92
2022-11-29T14:58:16.220Z,55.90
2022-11-29T15:01:02.703Z,54.92
2022-11-29T15:03:37.546Z,60.50
2022-11-29T15:06:17.908Z,53.63
2022-11-29T15:08:52.889Z,57.30
2022-11-29T15:11:34.707Z,58.28
2022-11-29T15:14:08.317Z,58.28
2022-11-29T15:16:57.760Z,58.72
2022-11-29T15:19:49.166Z,56.65
2022-11-29T15:22:20.672Z,56.83
2022-11-29T15:24:55.287Z,56.67
2022-11-29T15:27:27.586Z,66.70
2022-11-29T15:29:58.939Z,64.03
2022-11-29T15:32:31.341Z,60.28
2022-11-29T15:35:01.532Z,60.15
2022-11-29T15:37:44.547Z,69.93
2022-11-29T15:40:17.198Z,62.20
2022-11-29T15:42:51.425Z,62.97
2022-11-29T15:45:29.869Z,68.88
2022-11-29T15:48:15.110Z,67.93
2022-11-29T15:50:48.661Z,68.57
2022-11-29T15:53:22.714Z,70.22
2022-11-29T15:58:24.497Z,76.97
2022-11-29T16:00:54.960Z,78.03
2022-11-29T16:03:29.077Z,72.82
2022-11-29T16:06:04.108Z,73.25
2022-11-29T16:08:37.400Z,67.97
2022-11-29T16:11:08.605Z,68.13
2022-11-29T16:13:43.154Z,73.68
2022-11-29T16:16:20.496Z,68.05
2022-11-29T16:18:54.766Z,69.13
2022-11-29T16:23:56.304Z,72.78
2022-11-29T16:26:27.140Z,70.35
2022-11-29T16:29:00.104Z,72.22
2022-11-29T16:31:34.958Z,76.53
2022-11-29T16:34:10.332Z,70.50
2022-11-29T16:36:40.091Z,75.85
2022-11-29T16:39:10.991Z,68.50
2022-11-29T16:41:41.615Z,75.85
2022-11-29T16:44:45.513Z,72.30
2022-11-29T16:47:19.102Z,76.50
2022-11-29T16:49:49.132Z,78.05
2022-11-29T16:52:27.093Z,82.65
2022-11-29T16:54:56.773Z,85.15
2022-11-29T16:57:26.640Z,86.30
2022-11-29T16:59:58.920Z,88.85
2022-11-29T17:02:31.725Z,84.25
2022-11-29T17:05:01.387Z,84.97
2022-11-29T17:07:32.728Z,88.35
2022-11-29T17:10:02.771Z,74.43
2022-11-29T17:12:32.641Z,84.63
2022-11-29T17:15:04.863Z,80.78
2022-11-29T17:17:34.497Z,88.60
2022-11-29T17:20:04.110Z,83.57
2022-11-29T17:22:33.683Z,77.68
2022-11-29T17:25:03.339Z,78.97
2022-11-29T17:27:33.172Z,79.95
2022-11-29T17:30:06.034Z,72.70
2022-11-29T17:32:36.605Z,75.47
2022-11-29T17:35:06.444Z,74.70
2022-11-29T17:37:36.025Z,86.63
2022-11-29T17:40:05.617Z,82.57
2022-11-29T17:42:35.276Z,72.93
2022-11-29T17:45:07.958Z,75.60
2022-11-29T17:47:37.551Z,73.75
2022-11-29T17:50:08.461Z,82.47
2022-11-29T17:52:39.227Z,82.53
2022-11-29T17:55:10.297Z,85.60
2022-11-29T17:57:39.957Z,96.00
2022-11-29T18:00:15.418Z,81.50
2022-11-29T18:02:45.059Z,82.57
2022-11-29T18:05:14.689Z,79.78
2022-11-29T18:07:58.055Z,79.72
2022-11-29T18:10:28.540Z,82.50
2022-11-29T18:12:58.156Z,81.70
2022-11-29T18:15:30.352Z,83.60
2022-11-29T18:17:59.897Z,88.63
2022-11-29T18:20:29.503Z,98.45
2022-11-29T18:23:01.427Z,92.57
2022-11-29T18:25:39.553Z,101.15
2022-11-29T18:28:11.340Z,92.50
2022-11-29T18:30:43.562Z,113.35
2022-11-29T18:33:13.156Z,103.72
2022-11-29T18:35:42.791Z,120.95
2022-11-29T18:38:15.720Z,121.13
2022-11-29T18:40:48.370Z,118.53
2022-11-29T18:43:19.478Z,147.68
2022-11-29T18:45:51.793Z,127.00
2022-11-29T18:48:21.384Z,133.63
2022-11-29T18:50:51.025Z,129.00
2022-11-29T18:53:20.625Z,119.13
2022-11-29T18:55:50.223Z,108.13
2022-11-29T18:58:20.069Z,107.25
2022-11-29T19:00:52.348Z,108.78
2022-11-29T19:03:21.994Z,109.22
2022-11-29T19:05:55.090Z,100.68
2022-11-29T19:08:25.563Z,96.28
2022-11-29T19:10:55.296Z,97.47
2022-11-29T19:13:24.956Z,98.78
2022-11-29T19:15:58.215Z,94.60
2022-11-29T19:18:27.878Z,88.50
2022-11-29T19:21:06.353Z,82.53
2022-11-29T19:23:36.031Z,90.40
2022-11-29T19:26:06.519Z,80.47
2022-11-29T19:28:38.279Z,73.65
2022-11-29T19:31:11.110Z,72.63
2022-11-29T19:33:44.863Z,79.07
2022-11-29T19:36:15.907Z,62.60
2022-11-29T19:38:50.244Z,82.35
2022-11-29T19:41:24.809Z,86.65
2022-11-29T19:43:54.558Z,74.25
2022-11-29T19:46:28.383Z,75.03
2022-11-29T19:48:59.517Z,73.03
2022-11-29T19:51:30.252Z,69.13
2022-11-29T19:54:01.590Z,75.40
2022-11-29T19:56:32.193Z,61.08
2022-11-29T19:59:02.743Z,66.32
2022-11-29T20:01:40.880Z,59.03
2022-11-29T20:04:11.780Z,57.97
2022-11-29T20:06:41.554Z,63.72
2022-11-29T20:09:11.300Z,60.92
2022-11-29T20:11:41.092Z,63.00
2022-11-29T20:14:11.542Z,54.55
2022-11-29T20:16:44.493Z,58.65
2022-11-29T20:19:16.228Z,62.80
2022-11-29T20:21:47.796Z,56.60
2022-11-29T20:24:19.388Z,59.10
2022-11-29T20:26:50.659Z,59.53
2022-11-29T20:29:21.868Z,66.57
2022-11-29T20:31:54.088Z,56.30
2022-11-29T20:34:23.940Z,53.78
2022-11-29T20:37:10.576Z,58.85
2022-11-29T20:39:46.568Z,55.20
2022-11-29T20:42:48.831Z,63.08
2022-11-29T20:45:19.598Z,57.50
2022-11-29T20:47:56.204Z,57.63
2022-11-29T20:50:28.679Z,58.63
2022-11-29T20:53:09.181Z,59.85
2022-11-29T20:55:44.891Z,57.70
2022-11-29T20:58:16.157Z,58.65
2022-11-29T21:00:45.942Z,58.75
2022-11-29T21:03:19.361Z,49.38
2022-11-29T21:05:49.451Z,54.17
2022-11-29T21:08:21.932Z,53.95
2022-11-29T21:10:53.266Z,53.63
2022-11-29T21:13:24.257Z,57.13
2022-11-29T21:15:54.907Z,56.97
2022-11-29T21:18:29.951Z,59.42
2022-11-29T21:21:06.425Z,63.88
2022-11-29T21:23:45.504Z,63.53
2022-11-29T21:26:18.719Z,59.30
2022-11-29T21:29:00.817Z,59.92
2022-11-29T21:31:31.113Z,61.55
2022-11-29T21:34:03.964Z,57.72
2022-11-29T21:36:33.859Z,63.20
2022-11-29T21:39:05.263Z,62.00
2022-11-29T21:41:35.283Z,59.25
2022-11-29T21:44:07.070Z,53.28
2022-11-29T21:46:37.601Z,60.25
2022-11-29T21:49:10.413Z,63.78
2022-11-29T21:51:40.021Z,60.58
2022-11-29T21:54:09.650Z,56.45
2022-11-29T21:56:39.232Z,56.38
2022-11-29T21:59:08.846Z,51.95
2022-11-29T22:01:38.674Z,53.38
2022-11-29T22:04:11.064Z,65.65
2022-11-29T22:06:40.963Z,56.17
2022-11-29T22:09:10.690Z,64.65
2022-11-29T22:11:40.274Z,66.35
2022-11-29T22:14:18.369Z,63.20
2022-11-29T22:16:49.971Z,67.35
2022-11-29T22:19:23.371Z,62.97
2022-11-29T22:21:54.179Z,69.78
2022-11-29T22:24:26.312Z,63.88
2022-11-29T22:26:56.255Z,72.95
2022-11-29T22:29:26.711Z,69.25
2022-11-29T22:31:59.293Z,326.08
2022-11-29T22:34:31.611Z,74.20
2022-11-29T22:37:01.183Z,81.22
2022-11-29T22:39:30.753Z,86.40
2022-11-29T22:42:00.313Z,77.85
2022-11-29T22:44:30.348Z,87.25
2022-11-29T22:47:00.029Z,85.20
2022-11-29T22:49:33.343Z,86.20
2022-11-29T22:52:03.052Z,87.67
2022-11-29T22:54:32.711Z,89.05
2022-11-29T22:57:02.333Z,85.97
2022-11-29T22:59:31.957Z,88.28
2022-11-29T23:02:01.549Z,86.63
2022-11-29T23:04:33.760Z,78.97
2022-11-29T23:07:04.507Z,79.88
2022-11-29T23:09:34.123Z,95.35
2022-11-29T23:12:03.757Z,86.30
2022-11-29T23:14:33.452Z,91.30
2022-11-29T23:17:03.044Z,86.28
2022-11-29T23:19:35.229Z,89.13
2022-11-29T23:22:04.841Z,94.43
2022-11-29T23:24:34.407Z,91.80
2022-11-29T23:27:04.941Z,86.55
2022-11-29T23:29:34.543Z,89.68
2022-11-29T23:32:04.152Z,83.75
2022-11-29T23:34:36.362Z,92.97
2022-11-29T23:37:05.953Z,95.47
2022-11-29T23:39:35.575Z,97.80
2022-11-29T23:42:05.373Z,89.65
2022-11-29T23:44:35.080Z,101.47
2022-11-29T23:47:04.692Z,96.35
2022-11-29T23:49:39.858Z,107.07
2022-11-29T23:52:09.482Z,99.50
2022-11-29T23:54:39.086Z,111.97
2022-11-29T23:57:08.658Z,106.45
2022-11-29T23:59:38.455Z,119.70
